sensor_id;sensor_type;location;lat;lon;timestamp;P1;durP1;ratioP1;P2;durP2;ratioP2
68523;SDS011;55524;51.380;13.372;2023-07-22T00:01:11;4.45;;;3.35;;
68523;SDS011;55524;51.380;13.372;2023-07-22T00:03:37;7.93;;;3.35;;
68523;SDS011;55524;51.380;13.372;2023-07-22T00:08:34;6.28;;;3.97;;
68523;SDS011;55524;51.380;13.372;2023-07-22T00:11:02;7.22;;;3.50;;
68523;SDS011;55524;51.380;13.372;2023-07-22T00:13:29;5.57;;;3.40;;
68523;SDS011;55524;51.380;13.372;2023-07-22T00:15:58;4.40;;;3.60;;
68523;SDS011;55524;51.380;13.372;2023-07-22T00:18:26;6.15;;;3.40;;
68523;SDS011;55524;51.380;13.372;2023-07-22T00:20:54;8.65;;;3.50;;
68523;SDS011;55524;51.380;13.372;2023-07-22T00:23:20;7.72;;;3.58;;
68523;SDS011;55524;51.380;13.372;2023-07-22T00:25:47;10.10;;;3.50;;
68523;SDS011;55524;51.380;13.372;2023-07-22T00:28:13;6.43;;;3.60;;
68523;SDS011;55524;51.380;13.372;2023-07-22T00:30:40;5.63;;;3.40;;
68523;SDS011;55524;51.380;13.372;2023-07-22T00:33:07;3.50;;;3.20;;
68523;SDS011;55524;51.380;13.372;2023-07-22T00:35:34;4.88;;;3.28;;
68523;SDS011;55524;51.380;13.372;2023-07-22T00:38:00;3.83;;;3.13;;
68523;SDS011;55524;51.380;13.372;2023-07-22T00:40:27;3.42;;;3.13;;
68523;SDS011;55524;51.380;13.372;2023-07-22T00:43:00;6.85;;;3.88;;
68523;SDS011;55524;51.380;13.372;2023-07-22T00:45:27;5.88;;;3.40;;
68523;SDS011;55524;51.380;13.372;2023-07-22T00:47:53;6.55;;;3.63;;
68523;SDS011;55524;51.380;13.372;2023-07-22T00:50:19;6.18;;;3.33;;
68523;SDS011;55524;51.380;13.372;2023-07-22T00:52:46;4.63;;;3.10;;
68523;SDS011;55524;51.380;13.372;2023-07-22T00:55:13;5.55;;;3.05;;
68523;SDS011;55524;51.380;13.372;2023-07-22T00:57:39;4.60;;;3.30;;
68523;SDS011;55524;51.380;13.372;2023-07-22T01:00:06;4.32;;;3.80;;
68523;SDS011;55524;51.380;13.372;2023-07-22T01:02:32;5.60;;;3.35;;
68523;SDS011;55524;51.380;13.372;2023-07-22T01:04:59;4.15;;;3.55;;
68523;SDS011;55524;51.380;13.372;2023-07-22T01:07:26;5.45;;;3.35;;
68523;SDS011;55524;51.380;13.372;2023-07-22T01:09:55;5.80;;;3.60;;
68523;SDS011;55524;51.380;13.372;2023-07-22T01:12:25;7.22;;;3.28;;
68523;SDS011;55524;51.380;13.372;2023-07-22T01:14:51;8.13;;;3.72;;
68523;SDS011;55524;51.380;13.372;2023-07-22T01:17:18;4.47;;;3.65;;
68523;SDS011;55524;51.380;13.372;2023-07-22T01:19:44;4.05;;;3.63;;
68523;SDS011;55524;51.380;13.372;2023-07-22T01:22:12;8.25;;;4.00;;
68523;SDS011;55524;51.380;13.372;2023-07-22T01:24:41;5.72;;;4.43;;
68523;SDS011;55524;51.380;13.372;2023-07-22T01:27:07;6.38;;;4.07;;
68523;SDS011;55524;51.380;13.372;2023-07-22T01:29:35;6.88;;;4.47;;
68523;SDS011;55524;51.380;13.372;2023-07-22T01:32:01;6.25;;;3.80;;
68523;SDS011;55524;51.380;13.372;2023-07-22T01:34:28;5.18;;;4.15;;
68523;SDS011;55524;51.380;13.372;2023-07-22T01:36:56;6.78;;;4.82;;
68523;SDS011;55524;51.380;13.372;2023-07-22T01:39:22;5.13;;;4.00;;
68523;SDS011;55524;51.380;13.372;2023-07-22T01:41:49;4.88;;;4.03;;
68523;SDS011;55524;51.380;13.372;2023-07-22T01:44:15;5.15;;;4.50;;
68523;SDS011;55524;51.380;13.372;2023-07-22T01:46:41;5.40;;;4.28;;
68523;SDS011;55524;51.380;13.372;2023-07-22T01:49:10;5.15;;;4.38;;
68523;SDS011;55524;51.380;13.372;2023-07-22T01:51:37;9.32;;;4.63;;
68523;SDS011;55524;51.380;13.372;2023-07-22T01:54:05;5.13;;;4.32;;
68523;SDS011;55524;51.380;13.372;2023-07-22T01:56:32;6.47;;;4.53;;
68523;SDS011;55524;51.380;13.372;2023-07-22T01:58:58;5.68;;;4.53;;
68523;SDS011;55524;51.380;13.372;2023-07-22T02:01:25;5.53;;;4.60;;
68523;SDS011;55524;51.380;13.372;2023-07-22T02:03:51;5.20;;;4.70;;
68523;SDS011;55524;51.380;13.372;2023-07-22T02:06:17;8.18;;;4.72;;
68523;SDS011;55524;51.380;13.372;2023-07-22T02:08:44;10.48;;;4.75;;
68523;SDS011;55524;51.380;13.372;2023-07-22T02:11:11;9.93;;;4.63;;
68523;SDS011;55524;51.380;13.372;2023-07-22T02:13:38;4.95;;;4.45;;
68523;SDS011;55524;51.380;13.372;2023-07-22T02:16:04;5.32;;;4.82;;
68523;SDS011;55524;51.380;13.372;2023-07-22T02:18:30;12.32;;;5.20;;
68523;SDS011;55524;51.380;13.372;2023-07-22T02:20:56;6.43;;;5.20;;
68523;SDS011;55524;51.380;13.372;2023-07-22T02:23:23;5.60;;;4.82;;
68523;SDS011;55524;51.380;13.372;2023-07-22T02:25:50;5.85;;;5.07;;
68523;SDS011;55524;51.380;13.372;2023-07-22T02:28:18;9.63;;;5.28;;
68523;SDS011;55524;51.380;13.372;2023-07-22T02:30:49;9.40;;;5.60;;
68523;SDS011;55524;51.380;13.372;2023-07-22T02:33:17;6.72;;;6.07;;
68523;SDS011;55524;51.380;13.372;2023-07-22T02:35:44;6.88;;;5.80;;
68523;SDS011;55524;51.380;13.372;2023-07-22T02:38:11;7.45;;;5.57;;
68523;SDS011;55524;51.380;13.372;2023-07-22T02:40:39;7.85;;;5.95;;
68523;SDS011;55524;51.380;13.372;2023-07-22T02:43:06;6.68;;;5.80;;
68523;SDS011;55524;51.380;13.372;2023-07-22T02:45:33;8.07;;;5.57;;
68523;SDS011;55524;51.380;13.372;2023-07-22T02:47:59;6.80;;;5.63;;
68523;SDS011;55524;51.380;13.372;2023-07-22T02:50:26;9.52;;;6.13;;
68523;SDS011;55524;51.380;13.372;2023-07-22T02:52:52;6.97;;;6.05;;
68523;SDS011;55524;51.380;13.372;2023-07-22T02:55:18;6.45;;;5.85;;
68523;SDS011;55524;51.380;13.372;2023-07-22T02:57:45;6.95;;;5.55;;
68523;SDS011;55524;51.380;13.372;2023-07-22T03:00:13;9.10;;;6.38;;
68523;SDS011;55524;51.380;13.372;2023-07-22T03:02:48;6.88;;;6.10;;
68523;SDS011;55524;51.380;13.372;2023-07-22T03:05:18;10.05;;;6.32;;
68523;SDS011;55524;51.380;13.372;2023-07-22T03:07:46;7.22;;;6.07;;
68523;SDS011;55524;51.380;13.372;2023-07-22T03:10:12;6.80;;;6.10;;
68523;SDS011;55524;51.380;13.372;2023-07-22T03:12:38;8.70;;;6.60;;
68523;SDS011;55524;51.380;13.372;2023-07-22T03:15:05;8.35;;;6.55;;
68523;SDS011;55524;51.380;13.372;2023-07-22T03:17:34;8.63;;;5.80;;
68523;SDS011;55524;51.380;13.372;2023-07-22T03:20:01;7.40;;;6.15;;
68523;SDS011;55524;51.380;13.372;2023-07-22T03:22:34;10.00;;;6.40;;
68523;SDS011;55524;51.380;13.372;2023-07-22T03:25:00;7.68;;;6.53;;
68523;SDS011;55524;51.380;13.372;2023-07-22T03:27:27;6.70;;;6.10;;
68523;SDS011;55524;51.380;13.372;2023-07-22T03:29:54;8.80;;;6.38;;
68523;SDS011;55524;51.380;13.372;2023-07-22T03:32:20;7.72;;;6.20;;
68523;SDS011;55524;51.380;13.372;2023-07-22T03:34:46;13.95;;;6.28;;
68523;SDS011;55524;51.380;13.372;2023-07-22T03:37:12;10.13;;;5.95;;
68523;SDS011;55524;51.380;13.372;2023-07-22T03:39:39;11.80;;;6.60;;
68523;SDS011;55524;51.380;13.372;2023-07-22T03:42:06;6.97;;;6.18;;
68523;SDS011;55524;51.380;13.372;2023-07-22T03:44:32;8.50;;;6.05;;
68523;SDS011;55524;51.380;13.372;2023-07-22T03:46:59;7.47;;;5.93;;
68523;SDS011;55524;51.380;13.372;2023-07-22T03:49:25;8.55;;;5.82;;
68523;SDS011;55524;51.380;13.372;2023-07-22T03:51:52;7.38;;;6.45;;
68523;SDS011;55524;51.380;13.372;2023-07-22T03:54:18;6.40;;;5.80;;
68523;SDS011;55524;51.380;13.372;2023-07-22T03:56:44;6.53;;;5.60;;
68523;SDS011;55524;51.380;13.372;2023-07-22T03:59:10;6.15;;;5.55;;
68523;SDS011;55524;51.380;13.372;2023-07-22T04:01:37;7.20;;;6.45;;
68523;SDS011;55524;51.380;13.372;2023-07-22T04:04:03;8.55;;;6.20;;
68523;SDS011;55524;51.380;13.372;2023-07-22T04:06:29;8.82;;;5.88;;
68523;SDS011;55524;51.380;13.372;2023-07-22T04:08:56;10.30;;;5.82;;
68523;SDS011;55524;51.380;13.372;2023-07-22T04:11:22;6.47;;;5.82;;
68523;SDS011;55524;51.380;13.372;2023-07-22T04:13:48;10.15;;;6.20;;
68523;SDS011;55524;51.380;13.372;2023-07-22T04:16:14;8.23;;;5.60;;
68523;SDS011;55524;51.380;13.372;2023-07-22T04:18:41;11.40;;;6.03;;
68523;SDS011;55524;51.380;13.372;2023-07-22T04:21:07;7.35;;;6.45;;
68523;SDS011;55524;51.380;13.372;2023-07-22T04:23:33;7.95;;;5.60;;
68523;SDS011;55524;51.380;13.372;2023-07-22T04:26:01;9.88;;;5.75;;
68523;SDS011;55524;51.380;13.372;2023-07-22T04:28:33;7.75;;;5.50;;
68523;SDS011;55524;51.380;13.372;2023-07-22T04:31:00;7.90;;;5.75;;
68523;SDS011;55524;51.380;13.372;2023-07-22T04:33:26;6.13;;;5.53;;
68523;SDS011;55524;51.380;13.372;2023-07-22T04:35:53;5.93;;;5.25;;
68523;SDS011;55524;51.380;13.372;2023-07-22T04:38:21;6.60;;;5.90;;
68523;SDS011;55524;51.380;13.372;2023-07-22T04:40:47;6.45;;;5.72;;
68523;SDS011;55524;51.380;13.372;2023-07-22T04:43:14;8.20;;;6.05;;
68523;SDS011;55524;51.380;13.372;2023-07-22T04:45:40;11.82;;;6.15;;
68523;SDS011;55524;51.380;13.372;2023-07-22T04:48:06;6.72;;;5.72;;
68523;SDS011;55524;51.380;13.372;2023-07-22T04:50:33;10.57;;;5.95;;
68523;SDS011;55524;51.380;13.372;2023-07-22T04:52:59;6.30;;;5.53;;
68523;SDS011;55524;51.380;13.372;2023-07-22T04:55:25;7.80;;;6.43;;
68523;SDS011;55524;51.380;13.372;2023-07-22T04:57:54;8.65;;;5.55;;
68523;SDS011;55524;51.380;13.372;2023-07-22T05:00:21;10.90;;;6.10;;
68523;SDS011;55524;51.380;13.372;2023-07-22T05:02:47;6.55;;;5.93;;
68523;SDS011;55524;51.380;13.372;2023-07-22T05:05:14;8.63;;;6.03;;
68523;SDS011;55524;51.380;13.372;2023-07-22T05:07:41;6.53;;;5.80;;
68523;SDS011;55524;51.380;13.372;2023-07-22T05:10:07;6.95;;;6.22;;
68523;SDS011;55524;51.380;13.372;2023-07-22T05:12:40;11.40;;;6.35;;
68523;SDS011;55524;51.380;13.372;2023-07-22T05:15:07;6.55;;;5.95;;
68523;SDS011;55524;51.380;13.372;2023-07-22T05:17:37;12.23;;;6.20;;
68523;SDS011;55524;51.380;13.372;2023-07-22T05:20:04;15.50;;;6.38;;
68523;SDS011;55524;51.380;13.372;2023-07-22T05:22:32;18.13;;;6.80;;
68523;SDS011;55524;51.380;13.372;2023-07-22T05:24:58;10.90;;;6.20;;
68523;SDS011;55524;51.380;13.372;2023-07-22T05:27:25;9.77;;;6.30;;
68523;SDS011;55524;51.380;13.372;2023-07-22T05:29:51;12.07;;;5.80;;
68523;SDS011;55524;51.380;13.372;2023-07-22T05:32:18;11.75;;;6.03;;
68523;SDS011;55524;51.380;13.372;2023-07-22T05:34:47;11.65;;;6.05;;
68523;SDS011;55524;51.380;13.372;2023-07-22T05:37:14;7.32;;;6.32;;
68523;SDS011;55524;51.380;13.372;2023-07-22T05:39:40;12.48;;;6.45;;
68523;SDS011;55524;51.380;13.372;2023-07-22T05:42:06;12.88;;;7.28;;
68523;SDS011;55524;51.380;13.372;2023-07-22T05:44:32;7.85;;;6.25;;
68523;SDS011;55524;51.380;13.372;2023-07-22T05:46:59;8.88;;;6.70;;
68523;SDS011;55524;51.380;13.372;2023-07-22T05:49:25;15.10;;;6.82;;
68523;SDS011;55524;51.380;13.372;2023-07-22T05:51:52;9.02;;;6.38;;
68523;SDS011;55524;51.380;13.372;2023-07-22T05:54:18;12.85;;;6.95;;
68523;SDS011;55524;51.380;13.372;2023-07-22T05:56:44;9.50;;;6.22;;
68523;SDS011;55524;51.380;13.372;2023-07-22T05:59:10;9.70;;;6.28;;
68523;SDS011;55524;51.380;13.372;2023-07-22T06:01:37;12.93;;;6.80;;
68523;SDS011;55524;51.380;13.372;2023-07-22T06:04:03;7.90;;;5.85;;
68523;SDS011;55524;51.380;13.372;2023-07-22T06:06:30;9.98;;;7.20;;
68523;SDS011;55524;51.380;13.372;2023-07-22T06:08:56;7.38;;;5.75;;
68523;SDS011;55524;51.380;13.372;2023-07-22T06:11:23;8.38;;;5.95;;
68523;SDS011;55524;51.380;13.372;2023-07-22T06:13:49;8.27;;;6.40;;
68523;SDS011;55524;51.380;13.372;2023-07-22T06:16:15;9.68;;;6.65;;
68523;SDS011;55524;51.380;13.372;2023-07-22T06:18:42;12.32;;;6.45;;
68523;SDS011;55524;51.380;13.372;2023-07-22T06:21:08;8.50;;;5.90;;
68523;SDS011;55524;51.380;13.372;2023-07-22T06:23:34;8.30;;;6.43;;
68523;SDS011;55524;51.380;13.372;2023-07-22T06:26:02;11.65;;;6.20;;
68523;SDS011;55524;51.380;13.372;2023-07-22T06:28:28;11.20;;;6.65;;
68523;SDS011;55524;51.380;13.372;2023-07-22T06:30:54;9.45;;;6.20;;
68523;SDS011;55524;51.380;13.372;2023-07-22T06:33:22;10.30;;;6.00;;
68523;SDS011;55524;51.380;13.372;2023-07-22T06:35:48;11.43;;;6.35;;
68523;SDS011;55524;51.380;13.372;2023-07-22T06:38:15;7.55;;;6.00;;
68523;SDS011;55524;51.380;13.372;2023-07-22T06:40:42;10.18;;;5.95;;
68523;SDS011;55524;51.380;13.372;2023-07-22T06:43:08;8.63;;;6.78;;
68523;SDS011;55524;51.380;13.372;2023-07-22T06:45:34;13.15;;;6.68;;
68523;SDS011;55524;51.380;13.372;2023-07-22T06:48:01;10.25;;;6.70;;
68523;SDS011;55524;51.380;13.372;2023-07-22T06:50:28;10.48;;;6.10;;
68523;SDS011;55524;51.380;13.372;2023-07-22T06:52:54;12.88;;;6.07;;
68523;SDS011;55524;51.380;13.372;2023-07-22T06:55:20;8.38;;;5.90;;
68523;SDS011;55524;51.380;13.372;2023-07-22T06:57:48;7.53;;;5.40;;
68523;SDS011;55524;51.380;13.372;2023-07-22T07:00:14;9.50;;;5.90;;
68523;SDS011;55524;51.380;13.372;2023-07-22T07:02:41;7.25;;;5.45;;
68523;SDS011;55524;51.380;13.372;2023-07-22T07:05:07;9.77;;;5.63;;
68523;SDS011;55524;51.380;13.372;2023-07-22T07:07:33;11.02;;;5.95;;
68523;SDS011;55524;51.380;13.372;2023-07-22T07:09:59;8.55;;;5.63;;
68523;SDS011;55524;51.380;13.372;2023-07-22T07:12:26;7.13;;;5.10;;
68523;SDS011;55524;51.380;13.372;2023-07-22T07:14:52;5.35;;;4.70;;
68523;SDS011;55524;51.380;13.372;2023-07-22T07:17:19;9.20;;;5.40;;
68523;SDS011;55524;51.380;13.372;2023-07-22T07:19:45;12.45;;;5.00;;
68523;SDS011;55524;51.380;13.372;2023-07-22T07:22:11;17.63;;;5.95;;
68523;SDS011;55524;51.380;13.372;2023-07-22T07:24:38;6.82;;;4.85;;
68523;SDS011;55524;51.380;13.372;2023-07-22T07:27:04;6.80;;;4.60;;
68523;SDS011;55524;51.380;13.372;2023-07-22T07:29:31;8.77;;;4.80;;
68523;SDS011;55524;51.380;13.372;2023-07-22T07:31:57;9.18;;;5.03;;
68523;SDS011;55524;51.380;13.372;2023-07-22T07:34:23;8.18;;;4.63;;
68523;SDS011;55524;51.380;13.372;2023-07-22T07:36:49;7.40;;;4.60;;
68523;SDS011;55524;51.380;13.372;2023-07-22T07:39:16;8.05;;;4.45;;
68523;SDS011;55524;51.380;13.372;2023-07-22T07:41:42;5.75;;;4.05;;
68523;SDS011;55524;51.380;13.372;2023-07-22T07:44:08;6.75;;;4.40;;
68523;SDS011;55524;51.380;13.372;2023-07-22T07:46:34;7.03;;;3.90;;
68523;SDS011;55524;51.380;13.372;2023-07-22T07:49:01;5.68;;;4.57;;
68523;SDS011;55524;51.380;13.372;2023-07-22T07:51:28;4.38;;;3.80;;
68523;SDS011;55524;51.380;13.372;2023-07-22T07:53:56;5.15;;;4.03;;
68523;SDS011;55524;51.380;13.372;2023-07-22T07:56:23;4.45;;;3.95;;
68523;SDS011;55524;51.380;13.372;2023-07-22T07:58:53;4.63;;;3.83;;
68523;SDS011;55524;51.380;13.372;2023-07-22T08:01:20;9.02;;;4.28;;
68523;SDS011;55524;51.380;13.372;2023-07-22T08:03:46;5.63;;;3.78;;
68523;SDS011;55524;51.380;13.372;2023-07-22T08:06:13;6.90;;;4.05;;
68523;SDS011;55524;51.380;13.372;2023-07-22T08:08:39;4.57;;;3.88;;
68523;SDS011;55524;51.380;13.372;2023-07-22T08:11:09;6.40;;;4.40;;
68523;SDS011;55524;51.380;13.372;2023-07-22T08:13:41;7.20;;;3.70;;
68523;SDS011;55524;51.380;13.372;2023-07-22T08:16:09;5.90;;;2.97;;
68523;SDS011;55524;51.380;13.372;2023-07-22T08:18:37;7.45;;;4.07;;
68523;SDS011;55524;51.380;13.372;2023-07-22T08:21:04;6.13;;;3.80;;
68523;SDS011;55524;51.380;13.372;2023-07-22T08:23:35;5.00;;;3.38;;
68523;SDS011;55524;51.380;13.372;2023-07-22T08:26:02;5.78;;;3.90;;
68523;SDS011;55524;51.380;13.372;2023-07-22T08:28:32;3.45;;;3.10;;
68523;SDS011;55524;51.380;13.372;2023-07-22T08:30:59;4.07;;;3.13;;
68523;SDS011;55524;51.380;13.372;2023-07-22T08:33:28;4.22;;;3.00;;
68523;SDS011;55524;51.380;13.372;2023-07-22T08:35:54;3.90;;;2.80;;
68523;SDS011;55524;51.380;13.372;2023-07-22T08:38:21;3.88;;;2.83;;
68523;SDS011;55524;51.380;13.372;2023-07-22T08:40:50;4.72;;;2.90;;
68523;SDS011;55524;51.380;13.372;2023-07-22T08:43:19;5.25;;;3.10;;
68523;SDS011;55524;51.380;13.372;2023-07-22T08:45:47;7.82;;;3.25;;
68523;SDS011;55524;51.380;13.372;2023-07-22T08:48:15;6.53;;;2.88;;
68523;SDS011;55524;51.380;13.372;2023-07-22T08:53:12;3.70;;;2.90;;
68523;SDS011;55524;51.380;13.372;2023-07-22T08:55:38;2.80;;;2.60;;
68523;SDS011;55524;51.380;13.372;2023-07-22T08:58:08;3.22;;;2.90;;
68523;SDS011;55524;51.380;13.372;2023-07-22T09:00:35;3.25;;;2.72;;
68523;SDS011;55524;51.380;13.372;2023-07-22T09:03:03;7.32;;;2.83;;
68523;SDS011;55524;51.380;13.372;2023-07-22T09:05:33;4.25;;;3.08;;
68523;SDS011;55524;51.380;13.372;2023-07-22T09:08:04;8.40;;;3.20;;
68523;SDS011;55524;51.380;13.372;2023-07-22T09:10:32;6.35;;;3.28;;
68523;SDS011;55524;51.380;13.372;2023-07-22T09:13:00;3.15;;;2.67;;
68523;SDS011;55524;51.380;13.372;2023-07-22T09:15:27;3.60;;;2.90;;
68523;SDS011;55524;51.380;13.372;2023-07-22T09:17:54;3.30;;;3.00;;
68523;SDS011;55524;51.380;13.372;2023-07-22T09:20:20;2.95;;;2.47;;
68523;SDS011;55524;51.380;13.372;2023-07-22T09:22:51;3.47;;;2.72;;
68523;SDS011;55524;51.380;13.372;2023-07-22T09:27:45;8.20;;;2.83;;
68523;SDS011;55524;51.380;13.372;2023-07-22T09:30:22;4.75;;;2.70;;
68523;SDS011;55524;51.380;13.372;2023-07-22T09:32:49;3.20;;;2.50;;
68523;SDS011;55524;51.380;13.372;2023-07-22T09:35:16;6.35;;;3.30;;
68523;SDS011;55524;51.380;13.372;2023-07-22T09:37:43;3.10;;;2.80;;
68523;SDS011;55524;51.380;13.372;2023-07-22T09:40:23;4.25;;;3.30;;
68523;SDS011;55524;51.380;13.372;2023-07-22T09:42:55;4.10;;;2.78;;
68523;SDS011;55524;51.380;13.372;2023-07-22T09:45:25;3.55;;;2.92;;
68523;SDS011;55524;51.380;13.372;2023-07-22T09:47:53;2.92;;;2.65;;
68523;SDS011;55524;51.380;13.372;2023-07-22T09:50:21;2.95;;;2.58;;
68523;SDS011;55524;51.380;13.372;2023-07-22T09:52:56;3.33;;;2.53;;
68523;SDS011;55524;51.380;13.372;2023-07-22T09:55:27;3.05;;;2.55;;
68523;SDS011;55524;51.380;13.372;2023-07-22T09:57:58;5.05;;;2.22;;
68523;SDS011;55524;51.380;13.372;2023-07-22T10:00:30;2.97;;;2.45;;
68523;SDS011;55524;51.380;13.372;2023-07-22T10:02:59;2.83;;;2.63;;
68523;SDS011;55524;51.380;13.372;2023-07-22T10:05:29;3.45;;;2.78;;
68523;SDS011;55524;51.380;13.372;2023-07-22T10:07:58;3.17;;;2.88;;
68523;SDS011;55524;51.380;13.372;2023-07-22T10:10:26;4.03;;;2.50;;
68523;SDS011;55524;51.380;13.372;2023-07-22T10:12:57;5.30;;;2.47;;
68523;SDS011;55524;51.380;13.372;2023-07-22T10:15:28;3.08;;;2.75;;
68523;SDS011;55524;51.380;13.372;2023-07-22T10:17:55;3.38;;;2.88;;
68523;SDS011;55524;51.380;13.372;2023-07-22T10:20:22;2.97;;;2.67;;
68523;SDS011;55524;51.380;13.372;2023-07-22T10:22:49;5.72;;;2.50;;
68523;SDS011;55524;51.380;13.372;2023-07-22T10:25:17;2.90;;;2.45;;
68523;SDS011;55524;51.380;13.372;2023-07-22T10:27:44;5.38;;;2.90;;
68523;SDS011;55524;51.380;13.372;2023-07-22T10:30:13;6.78;;;2.50;;
68523;SDS011;55524;51.380;13.372;2023-07-22T10:32:42;4.20;;;2.53;;
68523;SDS011;55524;51.380;13.372;2023-07-22T10:35:16;3.40;;;2.85;;
68523;SDS011;55524;51.380;13.372;2023-07-22T10:37:46;4.45;;;2.67;;
68523;SDS011;55524;51.380;13.372;2023-07-22T10:43:05;5.13;;;2.85;;
68523;SDS011;55524;51.380;13.372;2023-07-22T10:45:48;5.88;;;2.75;;
68523;SDS011;55524;51.380;13.372;2023-07-22T10:48:18;2.72;;;2.50;;
68523;SDS011;55524;51.380;13.372;2023-07-22T10:50:49;3.28;;;2.58;;
68523;SDS011;55524;51.380;13.372;2023-07-22T10:53:27;5.45;;;2.67;;
68523;SDS011;55524;51.380;13.372;2023-07-22T11:14:30;4.95;;;2.90;;
68523;SDS011;55524;51.380;13.372;2023-07-22T11:16:59;3.25;;;2.60;;
68523;SDS011;55524;51.380;13.372;2023-07-22T11:19:29;2.42;;;2.30;;
68523;SDS011;55524;51.380;13.372;2023-07-22T11:21:56;3.97;;;3.13;;
68523;SDS011;55524;51.380;13.372;2023-07-22T11:24:23;3.10;;;2.65;;
68523;SDS011;55524;51.380;13.372;2023-07-22T11:26:50;5.65;;;2.50;;
68523;SDS011;55524;51.380;13.372;2023-07-22T11:29:17;7.68;;;2.90;;
68523;SDS011;55524;51.380;13.372;2023-07-22T11:31:44;5.82;;;2.90;;
68523;SDS011;55524;51.380;13.372;2023-07-22T11:34:13;8.80;;;2.78;;
68523;SDS011;55524;51.380;13.372;2023-07-22T11:36:41;4.82;;;2.20;;
68523;SDS011;55524;51.380;13.372;2023-07-22T11:39:09;4.32;;;2.45;;
68523;SDS011;55524;51.380;13.372;2023-07-22T11:41:38;3.50;;;2.55;;
68523;SDS011;55524;51.380;13.372;2023-07-22T11:44:08;6.75;;;2.35;;
68523;SDS011;55524;51.380;13.372;2023-07-22T11:52:03;3.38;;;1.80;;
68523;SDS011;55524;51.380;13.372;2023-07-22T11:54:32;2.25;;;2.00;;
68523;SDS011;55524;51.380;13.372;2023-07-22T11:57:10;3.38;;;1.80;;
68523;SDS011;55524;51.380;13.372;2023-07-22T11:59:48;3.67;;;2.10;;
68523;SDS011;55524;51.380;13.372;2023-07-22T12:04:56;5.28;;;1.90;;
68523;SDS011;55524;51.380;13.372;2023-07-22T12:09:54;3.83;;;2.03;;
68523;SDS011;55524;51.380;13.372;2023-07-22T12:12:30;3.58;;;1.90;;
68523;SDS011;55524;51.380;13.372;2023-07-22T12:15:21;7.07;;;2.15;;
68523;SDS011;55524;51.380;13.372;2023-07-22T12:20:28;3.50;;;2.00;;
68523;SDS011;55524;51.380;13.372;2023-07-22T12:23:00;5.95;;;2.00;;
68523;SDS011;55524;51.380;13.372;2023-07-22T12:25:27;3.40;;;2.40;;
68523;SDS011;55524;51.380;13.372;2023-07-22T12:27:54;5.95;;;2.13;;
68523;SDS011;55524;51.380;13.372;2023-07-22T12:30:20;8.70;;;2.13;;
68523;SDS011;55524;51.380;13.372;2023-07-22T12:32:49;2.30;;;2.10;;
68523;SDS011;55524;51.380;13.372;2023-07-22T12:35:15;3.70;;;2.00;;
68523;SDS011;55524;51.380;13.372;2023-07-22T12:37:41;4.00;;;2.38;;
68523;SDS011;55524;51.380;13.372;2023-07-22T12:40:08;2.10;;;1.83;;
68523;SDS011;55524;51.380;13.372;2023-07-22T12:42:37;1.85;;;1.75;;
68523;SDS011;55524;51.380;13.372;2023-07-22T12:45:06;2.22;;;2.00;;
68523;SDS011;55524;51.380;13.372;2023-07-22T12:47:33;4.35;;;2.20;;
68523;SDS011;55524;51.380;13.372;2023-07-22T12:49:59;2.50;;;2.30;;
68523;SDS011;55524;51.380;13.372;2023-07-22T12:52:25;4.50;;;2.30;;
68523;SDS011;55524;51.380;13.372;2023-07-22T12:54:52;3.50;;;2.25;;
68523;SDS011;55524;51.380;13.372;2023-07-22T12:57:18;3.17;;;1.80;;
68523;SDS011;55524;51.380;13.372;2023-07-22T12:59:44;3.17;;;2.42;;
68523;SDS011;55524;51.380;13.372;2023-07-22T13:02:11;5.40;;;2.10;;
68523;SDS011;55524;51.380;13.372;2023-07-22T13:04:37;2.30;;;2.08;;
68523;SDS011;55524;51.380;13.372;2023-07-22T13:07:04;2.25;;;1.95;;
68523;SDS011;55524;51.380;13.372;2023-07-22T13:09:30;5.82;;;2.10;;
68523;SDS011;55524;51.380;13.372;2023-07-22T13:11:57;2.47;;;2.20;;
68523;SDS011;55524;51.380;13.372;2023-07-22T13:14:23;4.97;;;1.85;;
68523;SDS011;55524;51.380;13.372;2023-07-22T13:16:49;2.38;;;2.03;;
68523;SDS011;55524;51.380;13.372;2023-07-22T13:19:15;7.65;;;2.95;;
68523;SDS011;55524;51.380;13.372;2023-07-22T13:21:42;2.10;;;1.98;;
68523;SDS011;55524;51.380;13.372;2023-07-22T13:24:08;9.18;;;2.33;;
68523;SDS011;55524;51.380;13.372;2023-07-22T13:26:34;2.47;;;2.20;;
68523;SDS011;55524;51.380;13.372;2023-07-22T13:29:01;4.00;;;2.03;;
68523;SDS011;55524;51.380;13.372;2023-07-22T13:31:27;2.20;;;2.00;;
68523;SDS011;55524;51.380;13.372;2023-07-22T13:33:53;5.35;;;2.40;;
68523;SDS011;55524;51.380;13.372;2023-07-22T13:36:19;7.45;;;2.40;;
68523;SDS011;55524;51.380;13.372;2023-07-22T13:38:46;4.13;;;2.33;;
68523;SDS011;55524;51.380;13.372;2023-07-22T13:41:12;3.40;;;2.42;;
68523;SDS011;55524;51.380;13.372;2023-07-22T13:43:38;17.42;;;3.35;;
68523;SDS011;55524;51.380;13.372;2023-07-22T13:46:04;2.58;;;2.30;;
68523;SDS011;55524;51.380;13.372;2023-07-22T13:48:31;2.63;;;2.42;;
68523;SDS011;55524;51.380;13.372;2023-07-22T13:50:57;4.60;;;2.40;;
68523;SDS011;55524;51.380;13.372;2023-07-22T13:53:23;3.72;;;2.35;;
68523;SDS011;55524;51.380;13.372;2023-07-22T13:55:49;3.58;;;2.25;;
68523;SDS011;55524;51.380;13.372;2023-07-22T13:58:16;2.47;;;2.28;;
68523;SDS011;55524;51.380;13.372;2023-07-22T14:00:42;4.10;;;2.05;;
68523;SDS011;55524;51.380;13.372;2023-07-22T14:03:08;3.13;;;2.50;;
68523;SDS011;55524;51.380;13.372;2023-07-22T14:05:35;2.55;;;2.17;;
68523;SDS011;55524;51.380;13.372;2023-07-22T14:08:01;2.92;;;2.53;;
68523;SDS011;55524;51.380;13.372;2023-07-22T14:10:28;3.28;;;2.50;;
68523;SDS011;55524;51.380;13.372;2023-07-22T14:12:54;2.70;;;2.50;;
68523;SDS011;55524;51.380;13.372;2023-07-22T14:15:20;2.80;;;2.60;;
68523;SDS011;55524;51.380;13.372;2023-07-22T14:17:46;2.25;;;2.15;;
68523;SDS011;55524;51.380;13.372;2023-07-22T14:20:13;8.02;;;2.63;;
68523;SDS011;55524;51.380;13.372;2023-07-22T14:22:41;5.75;;;2.28;;
68523;SDS011;55524;51.380;13.372;2023-07-22T14:25:08;5.07;;;2.80;;
68523;SDS011;55524;51.380;13.372;2023-07-22T14:27:34;2.58;;;2.38;;
68523;SDS011;55524;51.380;13.372;2023-07-22T14:30:03;2.38;;;2.17;;
68523;SDS011;55524;51.380;13.372;2023-07-22T14:32:30;3.80;;;2.95;;
68523;SDS011;55524;51.380;13.372;2023-07-22T14:34:57;3.47;;;2.03;;
68523;SDS011;55524;51.380;13.372;2023-07-22T14:37:23;4.95;;;2.78;;
68523;SDS011;55524;51.380;13.372;2023-07-22T14:39:49;3.80;;;2.25;;
68523;SDS011;55524;51.380;13.372;2023-07-22T14:42:15;4.28;;;2.22;;
68523;SDS011;55524;51.380;13.372;2023-07-22T14:44:42;4.72;;;2.50;;
68523;SDS011;55524;51.380;13.372;2023-07-22T14:47:08;2.67;;;2.47;;
68523;SDS011;55524;51.380;13.372;2023-07-22T14:49:34;4.13;;;2.33;;
68523;SDS011;55524;51.380;13.372;2023-07-22T14:52:01;2.58;;;2.38;;
68523;SDS011;55524;51.380;13.372;2023-07-22T14:54:27;2.05;;;1.95;;
68523;SDS011;55524;51.380;13.372;2023-07-22T14:56:53;4.43;;;2.50;;
68523;SDS011;55524;51.380;13.372;2023-07-22T14:59:20;6.72;;;2.40;;
68523;SDS011;55524;51.380;13.372;2023-07-22T15:01:46;5.07;;;2.38;;
68523;SDS011;55524;51.380;13.372;2023-07-22T15:04:12;2.20;;;2.10;;
68523;SDS011;55524;51.380;13.372;2023-07-22T15:06:39;4.97;;;2.50;;
68523;SDS011;55524;51.380;13.372;2023-07-22T15:09:05;2.60;;;2.33;;
68523;SDS011;55524;51.380;13.372;2023-07-22T15:11:35;4.15;;;2.75;;
68523;SDS011;55524;51.380;13.372;2023-07-22T15:14:02;2.53;;;2.33;;
68523;SDS011;55524;51.380;13.372;2023-07-22T15:16:29;16.55;;;4.10;;